sensor_id;sensor_type;location;lat;lon;timestamp;pressure;altitude;pressure_sealevel;temperature
38114;BMP180;23926;53.222;6.354;2022-12-07T00:01:31;101408.00;;;6.60
38114;BMP180;23926;53.222;6.354;2022-12-07T00:03:57;101406.00;;;6.70
38114;BMP180;23926;53.222;6.354;2022-12-07T00:06:28;101412.00;;;6.70
38114;BMP180;23926;53.222;6.354;2022-12-07T00:08:54;101415.00;;;6.70
38114;BMP180;23926;53.222;6.354;2022-12-07T00:11:20;101417.00;;;6.80
38114;BMP180;23926;53.222;6.354;2022-12-07T00:13:46;101414.00;;;6.80
38114;BMP180;23926;53.222;6.354;2022-12-07T00:16:15;101436.00;;;6.90
38114;BMP180;23926;53.222;6.354;2022-12-07T00:18:41;101419.00;;;6.80
38114;BMP180;23926;53.222;6.354;2022-12-07T00:21:14;101412.00;;;6.80
38114;BMP180;23926;53.222;6.354;2022-12-07T00:23:40;101392.00;;;6.80
38114;BMP180;23926;53.222;6.354;2022-12-07T00:26:16;101387.00;;;6.90
38114;BMP180;23926;53.222;6.354;2022-12-07T00:28:44;101383.00;;;6.80
38114;BMP180;23926;53.222;6.354;2022-12-07T00:31:10;101384.00;;;6.80
38114;BMP180;23926;53.222;6.354;2022-12-07T00:33:36;101392.00;;;6.90
38114;BMP180;23926;53.222;6.354;2022-12-07T00:36:03;101391.00;;;7.00
38114;BMP180;23926;53.222;6.354;2022-12-07T00:38:30;101395.00;;;7.20
38114;BMP180;23926;53.222;6.354;2022-12-07T00:41:00;101398.00;;;7.20
38114;BMP180;23926;53.222;6.354;2022-12-07T00:43:27;101400.00;;;7.30
38114;BMP180;23926;53.222;6.354;2022-12-07T00:45:52;101397.00;;;7.40
38114;BMP180;23926;53.222;6.354;2022-12-07T00:48:18;101393.00;;;7.40
38114;BMP180;23926;53.222;6.354;2022-12-07T00:50:43;101408.00;;;7.40
38114;BMP180;23926;53.222;6.354;2022-12-07T00:53:08;101422.00;;;7.50
38114;BMP180;23926;53.222;6.354;2022-12-07T00:55:34;101392.00;;;7.30
38114;BMP180;23926;53.222;6.354;2022-12-07T00:58:00;101390.00;;;7.00
38114;BMP180;23926;53.222;6.354;2022-12-07T01:00:25;101390.00;;;6.80
38114;BMP180;23926;53.222;6.354;2022-12-07T01:02:50;101387.00;;;6.60
38114;BMP180;23926;53.222;6.354;2022-12-07T01:05:15;101383.00;;;6.40
38114;BMP180;23926;53.222;6.354;2022-12-07T01:07:41;101376.00;;;6.30
38114;BMP180;23926;53.222;6.354;2022-12-07T01:10:06;101386.00;;;6.50
38114;BMP180;23926;53.222;6.354;2022-12-07T01:12:31;101391.00;;;6.60
38114;BMP180;23926;53.222;6.354;2022-12-07T01:14:57;101399.00;;;6.50
38114;BMP180;23926;53.222;6.354;2022-12-07T01:17:22;101392.00;;;6.50
38114;BMP180;23926;53.222;6.354;2022-12-07T01:19:47;101389.00;;;6.50
38114;BMP180;23926;53.222;6.354;2022-12-07T01:22:12;101390.00;;;6.60
38114;BMP180;23926;53.222;6.354;2022-12-07T01:24:38;101384.00;;;6.60
38114;BMP180;23926;53.222;6.354;2022-12-07T01:27:03;101385.00;;;6.60
38114;BMP180;23926;53.222;6.354;2022-12-07T01:29:28;101382.00;;;6.50
38114;BMP180;23926;53.222;6.354;2022-12-07T01:31:53;101380.00;;;6.50
38114;BMP180;23926;53.222;6.354;2022-12-07T01:34:19;101387.00;;;6.50
38114;BMP180;23926;53.222;6.354;2022-12-07T01:36:44;101383.00;;;6.50
38114;BMP180;23926;53.222;6.354;2022-12-07T01:39:09;101390.00;;;6.50
38114;BMP180;23926;53.222;6.354;2022-12-07T01:41:36;101378.00;;;6.50
38114;BMP180;23926;53.222;6.354;2022-12-07T01:44:18;101381.00;;;6.50
38114;BMP180;23926;53.222;6.354;2022-12-07T01:46:48;101383.00;;;6.60
38114;BMP180;23926;53.222;6.354;2022-12-07T01:49:18;101387.00;;;6.60
38114;BMP180;23926;53.222;6.354;2022-12-07T01:51:46;101391.00;;;6.60
38114;BMP180;23926;53.222;6.354;2022-12-07T01:54:13;101384.00;;;6.60
38114;BMP180;23926;53.222;6.354;2022-12-07T01:56:40;101385.00;;;6.70
38114;BMP180;23926;53.222;6.354;2022-12-07T01:59:06;101387.00;;;6.80
38114;BMP180;23926;53.222;6.354;2022-12-07T02:01:32;101386.00;;;6.80
38114;BMP180;23926;53.222;6.354;2022-12-07T02:03:57;101394.00;;;6.80
38114;BMP180;23926;53.222;6.354;2022-12-07T02:06:23;101393.00;;;6.90
38114;BMP180;23926;53.222;6.354;2022-12-07T02:08:49;101387.00;;;7.00
38114;BMP180;23926;53.222;6.354;2022-12-07T02:11:14;101383.00;;;7.00
38114;BMP180;23926;53.222;6.354;2022-12-07T02:13:40;101382.00;;;7.00
38114;BMP180;23926;53.222;6.354;2022-12-07T02:16:20;101372.00;;;7.00
38114;BMP180;23926;53.222;6.354;2022-12-07T02:24:14;101399.00;;;7.00
38114;BMP180;23926;53.222;6.354;2022-12-07T02:29:16;101385.00;;;6.60
38114;BMP180;23926;53.222;6.354;2022-12-07T02:31:44;101392.00;;;6.50
38114;BMP180;23926;53.222;6.354;2022-12-07T02:34:35;101380.00;;;6.50
38114;BMP180;23926;53.222;6.354;2022-12-07T02:36:59;101374.00;;;6.60
38114;BMP180;23926;53.222;6.354;2022-12-07T02:39:34;101373.00;;;6.60
38114;BMP180;23926;53.222;6.354;2022-12-07T02:42:07;101376.00;;;6.50
38114;BMP180;23926;53.222;6.354;2022-12-07T02:44:34;101352.00;;;6.40
38114;BMP180;23926;53.222;6.354;2022-12-07T02:47:05;101355.00;;;6.40
38114;BMP180;23926;53.222;6.354;2022-12-07T02:49:33;101361.00;;;6.50
38114;BMP180;23926;53.222;6.354;2022-12-07T02:52:00;101369.00;;;6.40
38114;BMP180;23926;53.222;6.354;2022-12-07T02:54:25;101364.00;;;6.50
38114;BMP180;23926;53.222;6.354;2022-12-07T03:07:10;101341.00;;;6.50
38114;BMP180;23926;53.222;6.354;2022-12-07T03:09:38;101350.00;;;6.40
38114;BMP180;23926;53.222;6.354;2022-12-07T03:12:10;101344.00;;;6.40
38114;BMP180;23926;53.222;6.354;2022-12-07T03:14:40;101359.00;;;6.30
38114;BMP180;23926;53.222;6.354;2022-12-07T03:17:11;101346.00;;;6.20
38114;BMP180;23926;53.222;6.354;2022-12-07T03:19:37;101348.00;;;6.10
38114;BMP180;23926;53.222;6.354;2022-12-07T03:22:08;101342.00;;;6.00
38114;BMP180;23926;53.222;6.354;2022-12-07T03:24:50;101344.00;;;6.00
38114;BMP180;23926;53.222;6.354;2022-12-07T03:29:50;101348.00;;;5.90
38114;BMP180;23926;53.222;6.354;2022-12-07T03:34:51;101338.00;;;5.80
38114;BMP180;23926;53.222;6.354;2022-12-07T03:37:38;101341.00;;;5.80
38114;BMP180;23926;53.222;6.354;2022-12-07T03:40:12;101333.00;;;5.80
38114;BMP180;23926;53.222;6.354;2022-12-07T03:42:38;101338.00;;;5.80
38114;BMP180;23926;53.222;6.354;2022-12-07T03:45:03;101331.00;;;5.90
38114;BMP180;23926;53.222;6.354;2022-12-07T03:47:31;101340.00;;;5.90
38114;BMP180;23926;53.222;6.354;2022-12-07T03:49:59;101355.00;;;5.90
38114;BMP180;23926;53.222;6.354;2022-12-07T03:52:26;101366.00;;;5.90
38114;BMP180;23926;53.222;6.354;2022-12-07T03:54:58;101351.00;;;6.10
38114;BMP180;23926;53.222;6.354;2022-12-07T03:57:24;101359.00;;;6.20
38114;BMP180;23926;53.222;6.354;2022-12-07T03:59:50;101357.00;;;6.30
38114;BMP180;23926;53.222;6.354;2022-12-07T04:02:16;101348.00;;;6.20
38114;BMP180;23926;53.222;6.354;2022-12-07T04:04:41;101334.00;;;6.20
38114;BMP180;23926;53.222;6.354;2022-12-07T04:07:07;101328.00;;;6.20
38114;BMP180;23926;53.222;6.354;2022-12-07T04:09:33;101322.00;;;6.10
38114;BMP180;23926;53.222;6.354;2022-12-07T04:11:58;101332.00;;;6.20
38114;BMP180;23926;53.222;6.354;2022-12-07T04:14:23;101334.00;;;6.20
38114;BMP180;23926;53.222;6.354;2022-12-07T04:16:52;101339.00;;;6.40
38114;BMP180;23926;53.222;6.354;2022-12-07T04:19:19;101331.00;;;6.40
38114;BMP180;23926;53.222;6.354;2022-12-07T04:21:45;101330.00;;;6.50
38114;BMP180;23926;53.222;6.354;2022-12-07T04:24:11;101321.00;;;6.50
38114;BMP180;23926;53.222;6.354;2022-12-07T04:26:37;101323.00;;;6.50
38114;BMP180;23926;53.222;6.354;2022-12-07T04:29:02;101331.00;;;6.50
38114;BMP180;23926;53.222;6.354;2022-12-07T04:31:27;101319.00;;;6.60
38114;BMP180;23926;53.222;6.354;2022-12-07T04:33:52;101328.00;;;6.70
38114;BMP180;23926;53.222;6.354;2022-12-07T04:36:18;101329.00;;;6.60
38114;BMP180;23926;53.222;6.354;2022-12-07T04:38:44;101334.00;;;6.60
38114;BMP180;23926;53.222;6.354;2022-12-07T04:41:10;101332.00;;;6.50
38114;BMP180;23926;53.222;6.354;2022-12-07T04:43:35;101323.00;;;6.50
38114;BMP180;23926;53.222;6.354;2022-12-07T04:46:01;101322.00;;;6.40
38114;BMP180;23926;53.222;6.354;2022-12-07T04:48:26;101311.00;;;6.30
38114;BMP180;23926;53.222;6.354;2022-12-07T04:50:51;101311.00;;;6.20
38114;BMP180;23926;53.222;6.354;2022-12-07T04:53:17;101317.00;;;6.10
38114;BMP180;23926;53.222;6.354;2022-12-07T04:55:42;101307.00;;;6.10
38114;BMP180;23926;53.222;6.354;2022-12-07T04:58:08;101316.00;;;6.00
38114;BMP180;23926;53.222;6.354;2022-12-07T05:00:33;101309.00;;;5.90
38114;BMP180;23926;53.222;6.354;2022-12-07T05:02:59;101313.00;;;5.80
38114;BMP180;23926;53.222;6.354;2022-12-07T05:05:24;101313.00;;;5.70
38114;BMP180;23926;53.222;6.354;2022-12-07T05:07:49;101310.00;;;5.60
38114;BMP180;23926;53.222;6.354;2022-12-07T05:10:15;101306.00;;;5.60
38114;BMP180;23926;53.222;6.354;2022-12-07T05:12:40;101318.00;;;5.50
38114;BMP180;23926;53.222;6.354;2022-12-07T05:15:05;101318.00;;;5.40
38114;BMP180;23926;53.222;6.354;2022-12-07T05:17:31;101315.00;;;5.40
38114;BMP180;23926;53.222;6.354;2022-12-07T05:19:56;101320.00;;;5.40
38114;BMP180;23926;53.222;6.354;2022-12-07T05:22:21;101314.00;;;5.40
38114;BMP180;23926;53.222;6.354;2022-12-07T05:24:47;101321.00;;;5.50
38114;BMP180;23926;53.222;6.354;2022-12-07T05:27:12;101321.00;;;5.50
38114;BMP180;23926;53.222;6.354;2022-12-07T05:29:37;101312.00;;;5.50
38114;BMP180;23926;53.222;6.354;2022-12-07T05:32:02;101316.00;;;5.70
38114;BMP180;23926;53.222;6.354;2022-12-07T05:34:28;101318.00;;;5.60
38114;BMP180;23926;53.222;6.354;2022-12-07T05:36:53;101316.00;;;5.60
38114;BMP180;23926;53.222;6.354;2022-12-07T05:39:18;101318.00;;;5.60
38114;BMP180;23926;53.222;6.354;2022-12-07T05:41:43;101324.00;;;5.60
38114;BMP180;23926;53.222;6.354;2022-12-07T05:44:28;101315.00;;;5.50
38114;BMP180;23926;53.222;6.354;2022-12-07T05:46:53;101305.00;;;5.40
38114;BMP180;23926;53.222;6.354;2022-12-07T05:49:18;101304.00;;;5.40
38114;BMP180;23926;53.222;6.354;2022-12-07T05:51:43;101297.00;;;5.40
38114;BMP180;23926;53.222;6.354;2022-12-07T05:54:09;101289.00;;;5.30
38114;BMP180;23926;53.222;6.354;2022-12-07T05:56:34;101299.00;;;5.50
38114;BMP180;23926;53.222;6.354;2022-12-07T05:58:59;101287.00;;;5.50
38114;BMP180;23926;53.222;6.354;2022-12-07T06:01:43;101293.00;;;5.60
38114;BMP180;23926;53.222;6.354;2022-12-07T06:04:09;101324.00;;;5.80
38114;BMP180;23926;53.222;6.354;2022-12-07T06:06:34;101332.00;;;5.80
38114;BMP180;23926;53.222;6.354;2022-12-07T06:08:59;101322.00;;;5.80
38114;BMP180;23926;53.222;6.354;2022-12-07T06:11:25;101307.00;;;5.60
38114;BMP180;23926;53.222;6.354;2022-12-07T06:14:09;101306.00;;;5.50
38114;BMP180;23926;53.222;6.354;2022-12-07T06:16:34;101307.00;;;5.50
38114;BMP180;23926;53.222;6.354;2022-12-07T06:18:59;101295.00;;;5.50
38114;BMP180;23926;53.222;6.354;2022-12-07T06:21:25;101296.00;;;5.50
38114;BMP180;23926;53.222;6.354;2022-12-07T06:23:53;101302.00;;;5.60
38114;BMP180;23926;53.222;6.354;2022-12-07T06:26:18;101299.00;;;5.50
38114;BMP180;23926;53.222;6.354;2022-12-07T06:28:43;101306.00;;;5.40
38114;BMP180;23926;53.222;6.354;2022-12-07T06:31:09;101302.00;;;5.40
38114;BMP180;23926;53.222;6.354;2022-12-07T06:33:34;101302.00;;;5.30
38114;BMP180;23926;53.222;6.354;2022-12-07T06:35:59;101301.00;;;5.30
38114;BMP180;23926;53.222;6.354;2022-12-07T06:38:25;101295.00;;;5.20
38114;BMP180;23926;53.222;6.354;2022-12-07T06:40:50;101302.00;;;5.10
38114;BMP180;23926;53.222;6.354;2022-12-07T06:43:15;101303.00;;;5.10
38114;BMP180;23926;53.222;6.354;2022-12-07T06:45:41;101303.00;;;5.00
38114;BMP180;23926;53.222;6.354;2022-12-07T06:48:06;101302.00;;;5.10
38114;BMP180;23926;53.222;6.354;2022-12-07T06:50:31;101306.00;;;5.10
38114;BMP180;23926;53.222;6.354;2022-12-07T06:52:57;101311.00;;;5.30
38114;BMP180;23926;53.222;6.354;2022-12-07T06:55:22;101312.00;;;5.40
38114;BMP180;23926;53.222;6.354;2022-12-07T06:57:47;101313.00;;;5.50
38114;BMP180;23926;53.222;6.354;2022-12-07T07:00:13;101316.00;;;5.50
38114;BMP180;23926;53.222;6.354;2022-12-07T07:02:38;101317.00;;;5.50
38114;BMP180;23926;53.222;6.354;2022-12-07T07:05:03;101310.00;;;5.50
38114;BMP180;23926;53.222;6.354;2022-12-07T07:07:29;101315.00;;;5.50
38114;BMP180;23926;53.222;6.354;2022-12-07T07:09:54;101311.00;;;5.50
38114;BMP180;23926;53.222;6.354;2022-12-07T07:12:19;101317.00;;;5.40
38114;BMP180;23926;53.222;6.354;2022-12-07T07:14:45;101315.00;;;5.30
38114;BMP180;23926;53.222;6.354;2022-12-07T07:17:10;101308.00;;;5.30
38114;BMP180;23926;53.222;6.354;2022-12-07T07:19:35;101324.00;;;5.30
38114;BMP180;23926;53.222;6.354;2022-12-07T07:22:02;101327.00;;;5.30
38114;BMP180;23926;53.222;6.354;2022-12-07T07:24:27;101319.00;;;5.20
38114;BMP180;23926;53.222;6.354;2022-12-07T07:26:52;101329.00;;;5.20
38114;BMP180;23926;53.222;6.354;2022-12-07T07:29:18;101315.00;;;5.10
38114;BMP180;23926;53.222;6.354;2022-12-07T07:31:43;101323.00;;;5.10
38114;BMP180;23926;53.222;6.354;2022-12-07T07:34:08;101318.00;;;5.10
38114;BMP180;23926;53.222;6.354;2022-12-07T07:36:34;101315.00;;;5.00
38114;BMP180;23926;53.222;6.354;2022-12-07T07:38:59;101317.00;;;5.00
38114;BMP180;23926;53.222;6.354;2022-12-07T07:41:24;101308.00;;;4.90
38114;BMP180;23926;53.222;6.354;2022-12-07T07:43:49;101306.00;;;4.90
38114;BMP180;23926;53.222;6.354;2022-12-07T07:46:15;101309.00;;;5.00
38114;BMP180;23926;53.222;6.354;2022-12-07T07:48:40;101327.00;;;5.10
38114;BMP180;23926;53.222;6.354;2022-12-07T07:51:06;101329.00;;;5.20
38114;BMP180;23926;53.222;6.354;2022-12-07T07:53:32;101337.00;;;5.20
38114;BMP180;23926;53.222;6.354;2022-12-07T07:55:57;101324.00;;;5.20
38114;BMP180;23926;53.222;6.354;2022-12-07T07:58:23;101317.00;;;5.30
38114;BMP180;23926;53.222;6.354;2022-12-07T08:00:48;101317.00;;;5.20
38114;BMP180;23926;53.222;6.354;2022-12-07T08:03:14;101312.00;;;5.20
38114;BMP180;23926;53.222;6.354;2022-12-07T08:05:39;101314.00;;;5.10
38114;BMP180;23926;53.222;6.354;2022-12-07T08:08:04;101310.00;;;5.10
38114;BMP180;23926;53.222;6.354;2022-12-07T08:10:30;101307.00;;;5.10
38114;BMP180;23926;53.222;6.354;2022-12-07T08:12:57;101302.00;;;5.10
38114;BMP180;23926;53.222;6.354;2022-12-07T08:15:42;101314.00;;;5.20
38114;BMP180;23926;53.222;6.354;2022-12-07T08:18:08;101314.00;;;5.30
38114;BMP180;23926;53.222;6.354;2022-12-07T08:20:34;101318.00;;;5.40
38114;BMP180;23926;53.222;6.354;2022-12-07T08:23:00;101316.00;;;5.40
38114;BMP180;23926;53.222;6.354;2022-12-07T08:25:25;101320.00;;;5.50
38114;BMP180;23926;53.222;6.354;2022-12-07T08:27:51;101315.00;;;5.50
38114;BMP180;23926;53.222;6.354;2022-12-07T08:30:16;101318.00;;;5.60
38114;BMP180;23926;53.222;6.354;2022-12-07T08:32:43;101319.00;;;5.50
38114;BMP180;23926;53.222;6.354;2022-12-07T08:35:09;101318.00;;;5.40
38114;BMP180;23926;53.222;6.354;2022-12-07T08:37:34;101326.00;;;5.40
38114;BMP180;23926;53.222;6.354;2022-12-07T08:39:59;101330.00;;;5.50
38114;BMP180;23926;53.222;6.354;2022-12-07T08:42:25;101347.00;;;5.50
38114;BMP180;23926;53.222;6.354;2022-12-07T08:44:54;101343.00;;;5.60
38114;BMP180;23926;53.222;6.354;2022-12-07T08:47:19;101346.00;;;5.80
38114;BMP180;23926;53.222;6.354;2022-12-07T08:49:46;101349.00;;;5.80
38114;BMP180;23926;53.222;6.354;2022-12-07T08:52:12;101345.00;;;6.00
38114;BMP180;23926;53.222;6.354;2022-12-07T08:54:38;101350.00;;;6.00
38114;BMP180;23926;53.222;6.354;2022-12-07T08:57:04;101343.00;;;6.10
38114;BMP180;23926;53.222;6.354;2022-12-07T08:59:29;101347.00;;;6.40
38114;BMP180;23926;53.222;6.354;2022-12-07T09:01:55;101338.00;;;6.40
38114;BMP180;23926;53.222;6.354;2022-12-07T09:04:20;101336.00;;;6.50
38114;BMP180;23926;53.222;6.354;2022-12-07T09:06:46;101342.00;;;6.50
38114;BMP180;23926;53.222;6.354;2022-12-07T09:09:11;101330.00;;;6.40
38114;BMP180;23926;53.222;6.354;2022-12-07T09:11:38;101327.00;;;6.50
38114;BMP180;23926;53.222;6.354;2022-12-07T09:14:04;101325.00;;;6.50
38114;BMP180;23926;53.222;6.354;2022-12-07T09:16:29;101329.00;;;6.70
38114;BMP180;23926;53.222;6.354;2022-12-07T09:18:54;101334.00;;;6.80
38114;BMP180;23926;53.222;6.354;2022-12-07T09:21:20;101348.00;;;6.90
38114;BMP180;23926;53.222;6.354;2022-12-07T09:23:45;101360.00;;;6.90
38114;BMP180;23926;53.222;6.354;2022-12-07T09:26:10;101337.00;;;6.60
38114;BMP180;23926;53.222;6.354;2022-12-07T09:28:36;101337.00;;;6.60
38114;BMP180;23926;53.222;6.354;2022-12-07T09:31:02;101337.00;;;6.60
38114;BMP180;23926;53.222;6.354;2022-12-07T09:33:27;101341.00;;;6.50
38114;BMP180;23926;53.222;6.354;2022-12-07T09:35:53;101336.00;;;6.50
38114;BMP180;23926;53.222;6.354;2022-12-07T09:38:18;101340.00;;;6.40
38114;BMP180;23926;53.222;6.354;2022-12-07T09:40:44;101328.00;;;6.50
38114;BMP180;23926;53.222;6.354;2022-12-07T09:43:13;101337.00;;;6.50
38114;BMP180;23926;53.222;6.354;2022-12-07T09:45:39;101329.00;;;6.50
38114;BMP180;23926;53.222;6.354;2022-12-07T09:48:05;101331.00;;;6.60
38114;BMP180;23926;53.222;6.354;2022-12-07T09:50:31;101331.00;;;6.70
38114;BMP180;23926;53.222;6.354;2022-12-07T09:53:10;101338.00;;;6.80
38114;BMP180;23926;53.222;6.354;2022-12-07T09:55:38;101342.00;;;7.00
38114;BMP180;23926;53.222;6.354;2022-12-07T09:58:05;101339.00;;;7.00
38114;BMP180;23926;53.222;6.354;2022-12-07T10:00:30;101341.00;;;7.00
38114;BMP180;23926;53.222;6.354;2022-12-07T10:02:57;101331.00;;;7.20
38114;BMP180;23926;53.222;6.354;2022-12-07T10:05:26;101335.00;;;7.50
38114;BMP180;23926;53.222;6.354;2022-12-07T10:07:52;101323.00;;;7.50
38114;BMP180;23926;53.222;6.354;2022-12-07T10:10:19;101324.00;;;7.60
38114;BMP180;23926;53.222;6.354;2022-12-07T10:18:16;101309.00;;;7.90
38114;BMP180;23926;53.222;6.354;2022-12-07T10:20:42;101315.00;;;8.00
38114;BMP180;23926;53.222;6.354;2022-12-07T10:23:13;101327.00;;;7.90
38114;BMP180;23926;53.222;6.354;2022-12-07T10:25:39;101319.00;;;8.00
38114;BMP180;23926;53.222;6.354;2022-12-07T10:33:57;101325.00;;;8.10
38114;BMP180;23926;53.222;6.354;2022-12-07T10:36:26;101310.00;;;8.40
38114;BMP180;23926;53.222;6.354;2022-12-07T10:38:50;101323.00;;;8.70
38114;BMP180;23926;53.222;6.354;2022-12-07T10:41:16;101320.00;;;8.80
38114;BMP180;23926;53.222;6.354;2022-12-07T10:43:48;101322.00;;;8.80
38114;BMP180;23926;53.222;6.354;2022-12-07T10:51:35;101306.00;;;7.40
38114;BMP180;23926;53.222;6.354;2022-12-07T11:11:47;101282.00;;;7.10
38114;BMP180;23926;53.222;6.354;2022-12-07T11:19:22;101275.00;;;7.50
38114;BMP180;23926;53.222;6.354;2022-12-07T11:21:56;101268.00;;;7.30
38114;BMP180;23926;53.222;6.354;2022-12-07T11:24:47;101275.00;;;7.40
38114;BMP180;23926;53.222;6.354;2022-12-07T11:27:10;101266.00;;;7.50
38114;BMP180;23926;53.222;6.354;2022-12-07T11:32:08;101259.00;;;7.50
38114;BMP180;23926;53.222;6.354;2022-12-07T11:34:54;101259.00;;;7.70
38114;BMP180;23926;53.222;6.354;2022-12-07T11:37:24;101253.00;;;7.80
38114;BMP180;23926;53.222;6.354;2022-12-07T11:39:51;101247.00;;;7.80
38114;BMP180;23926;53.222;6.354;2022-12-07T11:42:37;101249.00;;;7.90
38114;BMP180;23926;53.222;6.354;2022-12-07T11:45:21;101250.00;;;8.00
38114;BMP180;23926;53.222;6.354;2022-12-07T11:50:27;101248.00;;;8.20
38114;BMP180;23926;53.222;6.354;2022-12-07T11:53:00;101248.00;;;8.20
38114;BMP180;23926;53.222;6.354;2022-12-07T11:55:29;101233.00;;;8.20
38114;BMP180;23926;53.222;6.354;2022-12-07T11:58:03;101239.00;;;8.20
38114;BMP180;23926;53.222;6.354;2022-12-07T12:00:29;101240.00;;;8.20
38114;BMP180;23926;53.222;6.354;2022-12-07T12:03:07;101234.00;;;8.30
38114;BMP180;23926;53.222;6.354;2022-12-07T12:05:34;101233.00;;;8.30
38114;BMP180;23926;53.222;6.354;2022-12-07T12:08:13;101236.00;;;8.30
38114;BMP180;23926;53.222;6.354;2022-12-07T12:10:45;101233.00;;;8.20
38114;BMP180;23926;53.222;6.354;2022-12-07T12:18:40;101238.00;;;8.20
38114;BMP180;23926;53.222;6.354;2022-12-07T12:21:08;101224.00;;;8.20
38114;BMP180;23926;53.222;6.354;2022-12-07T12:26:01;101222.00;;;8.10
38114;BMP180;23926;53.222;6.354;2022-12-07T12:28:49;101216.00;;;7.90
38114;BMP180;23926;53.222;6.354;2022-12-07T12:31:16;101213.00;;;7.90
38114;BMP180;23926;53.222;6.354;2022-12-07T12:33:54;101212.00;;;7.80
38114;BMP180;23926;53.222;6.354;2022-12-07T12:51:44;101201.00;;;7.30
38114;BMP180;23926;53.222;6.354;2022-12-07T13:01:46;101177.00;;;7.20
38114;BMP180;23926;53.222;6.354;2022-12-07T13:04:21;101174.00;;;7.10
38114;BMP180;23926;53.222;6.354;2022-12-07T13:06:48;101176.00;;;7.20
38114;BMP180;23926;53.222;6.354;2022-12-07T13:09:33;101168.00;;;7.10
38114;BMP180;23926;53.222;6.354;2022-12-07T13:12:05;101172.00;;;7.10
38114;BMP180;23926;53.222;6.354;2022-12-07T13:14:40;101164.00;;;7.10
38114;BMP180;23926;53.222;6.354;2022-12-07T13:17:12;101161.00;;;7.20
38114;BMP180;23926;53.222;6.354;2022-12-07T13:20:39;101164.00;;;7.00
38114;BMP180;23926;53.222;6.354;2022-12-07T13:22:48;101164.00;;;7.20
38114;BMP180;23926;53.222;6.354;2022-12-07T13:25:27;101164.00;;;7.30
38114;BMP180;23926;53.222;6.354;2022-12-07T13:27:57;101173.00;;;7.40
38114;BMP180;23926;53.222;6.354;2022-12-07T13:30:23;101172.00;;;7.40
38114;BMP180;23926;53.222;6.354;2022-12-07T13:32:55;101174.00;;;7.30
38114;BMP180;23926;53.222;6.354;2022-12-07T13:35:28;101191.00;;;7.40
38114;BMP180;23926;53.222;6.354;2022-12-07T13:37:53;101169.00;;;7.20
38114;BMP180;23926;53.222;6.354;2022-12-07T13:40:20;101176.00;;;7.10
38114;BMP180;23926;53.222;6.354;2022-12-07T13:42:46;101165.00;;;7.00
38114;BMP180;23926;53.222;6.354;2022-12-07T13:45:28;101164.00;;;7.10
38114;BMP180;23926;53.222;6.354;2022-12-07T13:50:40;101159.00;;;6.80
38114;BMP180;23926;53.222;6.354;2022-12-07T13:53:07;101156.00;;;6.80
38114;BMP180;23926;53.222;6.354;2022-12-07T13:55:36;101155.00;;;6.80
38114;BMP180;23926;53.222;6.354;2022-12-07T13:58:01;101146.00;;;6.60
38114;BMP180;23926;53.222;6.354;2022-12-07T14:00:27;101154.00;;;6.60
38114;BMP180;23926;53.222;6.354;2022-12-07T14:02:57;101146.00;;;6.70
38114;BMP180;23926;53.222;6.354;2022-12-07T14:05:25;101152.00;;;6.70
38114;BMP180;23926;53.222;6.354;2022-12-07T14:10:30;101152.00;;;6.90
38114;BMP180;23926;53.222;6.354;2022-12-07T14:12:56;101148.00;;;6.90
38114;BMP180;23926;53.222;6.354;2022-12-07T14:15:23;101151.00;;;6.90
38114;BMP180;23926;53.222;6.354;2022-12-07T14:17:49;101142.00;;;7.00
38114;BMP180;23926;53.222;6.354;2022-12-07T14:20:29;101148.00;;;7.00
38114;BMP180;23926;53.222;6.354;2022-12-07T14:22:55;101147.00;;;6.70
38114;BMP180;23926;53.222;6.354;2022-12-07T14:25:21;101147.00;;;6.80
38114;BMP180;23926;53.222;6.354;2022-12-07T14:27:48;101163.00;;;6.80
38114;BMP180;23926;53.222;6.354;2022-12-07T14:30:17;101161.00;;;6.70
38114;BMP180;23926;53.222;6.354;2022-12-07T14:32:42;101167.00;;;6.60
38114;BMP180;23926;53.222;6.354;2022-12-07T14:35:14;101160.00;;;6.40
38114;BMP180;23926;53.222;6.354;2022-12-07T14:37:40;101140.00;;;6.20
38114;BMP180;23926;53.222;6.354;2022-12-07T14:40:06;101138.00;;;6.10
38114;BMP180;23926;53.222;6.354;2022-12-07T14:42:32;101135.00;;;5.90
38114;BMP180;23926;53.222;6.354;2022-12-07T14:44:58;101137.00;;;6.00
38114;BMP180;23926;53.222;6.354;2022-12-07T14:47:24;101140.00;;;6.00
38114;BMP180;23926;53.222;6.354;2022-12-07T14:49:50;101135.00;;;6.00
38114;BMP180;23926;53.222;6.354;2022-12-07T14:52:23;101132.00;;;6.00
38114;BMP180;23926;53.222;6.354;2022-12-07T14:54:49;101133.00;;;5.90
38114;BMP180;23926;53.222;6.354;2022-12-07T14:57:15;101123.00;;;5.80
38114;BMP180;23926;53.222;6.354;2022-12-07T14:59:40;101125.00;;;5.70
38114;BMP180;23926;53.222;6.354;2022-12-07T15:02:05;101114.00;;;5.70
38114;BMP180;23926;53.222;6.354;2022-12-07T15:04:31;101118.00;;;5.70
38114;BMP180;23926;53.222;6.354;2022-12-07T15:06:57;101111.00;;;5.60
38114;BMP180;23926;53.222;6.354;2022-12-07T15:09:22;101110.00;;;5.60
38114;BMP180;23926;53.222;6.354;2022-12-07T15:11:48;101110.00;;;5.60
38114;BMP180;23926;53.222;6.354;2022-12-07T15:14:13;101113.00;;;5.70
38114;BMP180;23926;53.222;6.354;2022-12-07T15:16:39;101117.00;;;5.70
38114;BMP180;23926;53.222;6.354;2022-12-07T15:19:06;101117.00;;;5.70
38114;BMP180;23926;53.222;6.354;2022-12-07T15:21:31;101107.00;;;5.70
38114;BMP180;23926;53.222;6.354;2022-12-07T15:23:56;101110.00;;;5.80
38114;BMP180;23926;53.222;6.354;2022-12-07T15:26:21;101112.00;;;5.90
38114;BMP180;23926;53.222;6.354;2022-12-07T15:28:47;101112.00;;;5.90
38114;BMP180;23926;53.222;6.354;2022-12-07T15:31:13;101111.00;;;5.90
38114;BMP180;23926;53.222;6.354;2022-12-07T15:33:38;101100.00;;;6.00
38114;BMP180;23926;53.222;6.354;2022-12-07T15:36:03;101095.00;;;5.90
38114;BMP180;23926;53.222;6.354;2022-12-07T15:38:29;101092.00;;;5.90
38114;BMP180;23926;53.222;6.354;2022-12-07T15:40:55;101089.00;;;5.90
38114;BMP180;23926;53.222;6.354;2022-12-07T15:43:20;101089.00;;;5.90
38114;BMP180;23926;53.222;6.354;2022-12-07T15:46:04;101075.00;;;5.80
38114;BMP180;23926;53.222;6.354;2022-12-07T15:48:30;101075.00;;;5.80
38114;BMP180;23926;53.222;6.354;2022-12-07T15:51:02;101078.00;;;5.80
38114;BMP180;23926;53.222;6.354;2022-12-07T15:53:27;101083.00;;;5.80
38114;BMP180;23926;53.222;6.354;2022-12-07T15:55:52;101079.00;;;5.80